createdAt,value
2017-12-08T00:00:18.769Z,99817.17
2017-12-08T00:01:21.253Z,99821.10
2017-12-08T00:02:23.718Z,99820.87
2017-12-08T00:03:26.190Z,99822.81
2017-12-08T00:04:28.647Z,99819.02
2017-12-08T00:05:31.724Z,99817.91
2017-12-08T00:06:34.804Z,99817.58
2017-12-08T00:07:37.538Z,99811.53
2017-12-08T00:08:40.009Z,99816.06
2017-12-08T00:09:42.476Z,99809.92
2017-12-08T00:10:44.930Z,99818.34
2017-12-08T00:11:47.412Z,99816.51
2017-12-08T00:12:49.860Z,99815.73
2017-12-08T00:13:52.327Z,99814.89
2017-12-08T00:14:54.782Z,99809.29
2017-12-08T00:15:57.234Z,99811.95
2017-12-08T00:16:59.694Z,99811.37
2017-12-08T00:18:02.144Z,99808.77
2017-12-08T00:19:04.628Z,99815.33
2017-12-08T00:20:07.083Z,99816.94
2017-12-08T00:21:09.529Z,99821.06
2017-12-08T00:22:11.993Z,99813.20
2017-12-08T00:23:14.457Z,99822.97
2017-12-08T00:24:16.933Z,99823.07
2017-12-08T00:25:19.386Z,99821.86
2017-12-08T00:26:21.835Z,99826.48
2017-12-08T00:27:24.283Z,99817.08
2017-12-08T00:28:26.745Z,99827.95
2017-12-08T00:29:29.209Z,99828.08
2017-12-08T00:30:31.678Z,99827.47
2017-12-08T00:31:34.126Z,99826.33
2017-12-08T00:32:36.588Z,99824.42
2017-12-08T00:33:39.052Z,99824.61
2017-12-08T00:34:41.511Z,99818.43
2017-12-08T00:35:43.972Z,99816.35
2017-12-08T00:36:46.434Z,99822.16
2017-12-08T00:37:48.882Z,99819.02
2017-12-08T00:38:51.348Z,99821.57
2017-12-08T00:39:53.804Z,99821.03
2017-12-08T00:40:56.254Z,99826.04
2017-12-08T00:41:58.714Z,99826.41
2017-12-08T00:43:01.180Z,99823.13
2017-12-08T00:44:03.642Z,99822.97
2017-12-08T00:45:06.108Z,99827.05
2017-12-08T00:46:08.559Z,99827.59
2017-12-08T00:47:11.025Z,99824.93
2017-12-08T00:48:13.492Z,99818.94
2017-12-08T00:49:15.938Z,99827.13
2017-12-08T00:50:18.404Z,99818.19
2017-12-08T00:51:20.850Z,99822.17
2017-12-08T00:52:23.329Z,99820.59
2017-12-08T00:53:25.782Z,99827.17
2017-12-08T00:54:28.235Z,99829.30
2017-12-08T00:55:30.700Z,99834.58
2017-12-08T00:56:33.158Z,99825.72
2017-12-08T00:57:35.625Z,99835.59
2017-12-08T00:58:38.074Z,99838.72
2017-12-08T00:59:40.556Z,99836.08
2017-12-08T01:00:43.006Z,99836.52
2017-12-08T01:01:45.473Z,99835.68
2017-12-08T01:02:47.941Z,99845.09
2017-12-08T01:03:50.416Z,99845.70
2017-12-08T01:04:52.884Z,99848.70
2017-12-08T01:05:55.349Z,99838.12
2017-12-08T01:06:57.816Z,99833.04
2017-12-08T01:08:00.289Z,99839.64
2017-12-08T01:09:02.754Z,99840.66
2017-12-08T01:10:05.206Z,99847.73
2017-12-08T01:11:07.658Z,99838.88
2017-12-08T01:12:10.132Z,99839.42
2017-12-08T01:13:12.597Z,99842.62
2017-12-08T01:14:15.058Z,99852.95
2017-12-08T01:15:17.537Z,99848.24
2017-12-08T01:16:19.991Z,99847.75
2017-12-08T01:17:22.456Z,99849.51
2017-12-08T01:18:24.910Z,99853.14
2017-12-08T01:19:27.354Z,99851.33
2017-12-08T01:20:29.810Z,99855.23
2017-12-08T01:21:32.301Z,99860.34
2017-12-08T01:22:34.772Z,99858.73
2017-12-08T01:23:37.237Z,99854.31
2017-12-08T01:24:39.727Z,99857.95
2017-12-08T01:25:42.200Z,99852.73
2017-12-08T01:26:44.679Z,99859.62
2017-12-08T01:27:47.131Z,99857.42
2017-12-08T01:28:49.600Z,99857.69
2017-12-08T01:29:52.068Z,99861.05
2017-12-08T01:30:54.514Z,99861.48
2017-12-08T01:31:56.985Z,99870.08
2017-12-08T01:32:59.438Z,99868.95
2017-12-08T01:34:01.890Z,99866.98
2017-12-08T01:35:04.342Z,99871.78
2017-12-08T01:36:06.809Z,99871.16
2017-12-08T01:37:09.254Z,99868.98
2017-12-08T01:38:11.724Z,99866.13
2017-12-08T01:39:14.186Z,99862.25
2017-12-08T01:40:16.636Z,99865.56
2017-12-08T01:41:19.094Z,99866.88
2017-12-08T01:42:21.548Z,99865.95
2017-12-08T01:43:24.034Z,99868.98
2017-12-08T01:44:26.506Z,99868.47
2017-12-08T01:45:28.964Z,99869.41
2017-12-08T01:46:31.415Z,99868.62
2017-12-08T01:47:33.871Z,99871.92
2017-12-08T01:48:36.318Z,99868.06
2017-12-08T01:49:38.793Z,99863.34
2017-12-08T01:50:41.263Z,99869.73
2017-12-08T01:51:43.714Z,99876.48
2017-12-08T01:52:46.166Z,99873.64
2017-12-08T01:53:48.633Z,99877.61
2017-12-08T01:54:51.096Z,99881.22
2017-12-08T01:55:53.564Z,99884.20
2017-12-08T01:56:56.029Z,99882.95
2017-12-08T01:57:58.504Z,99885.01
2017-12-08T01:59:00.958Z,99878.02
2017-12-08T02:00:03.422Z,99885.87
2017-12-08T02:01:05.882Z,99884.03
2017-12-08T02:02:08.356Z,99885.97
2017-12-08T02:03:10.802Z,99882.84
2017-12-08T02:04:13.274Z,99888.15
2017-12-08T02:05:15.730Z,99883.44
2017-12-08T02:06:18.178Z,99879.41
2017-12-08T02:07:20.644Z,99885.23
2017-12-08T02:08:23.099Z,99884.29
2017-12-08T02:09:25.584Z,99880.39
2017-12-08T02:10:28.085Z,99879.13
2017-12-08T02:11:30.548Z,99885.13
2017-12-08T02:12:33.012Z,99886.07
2017-12-08T02:13:35.463Z,99884.72
2017-12-08T02:14:37.938Z,99885.23
2017-12-08T02:15:40.390Z,99879.42
2017-12-08T02:16:42.856Z,99876.64
2017-12-08T02:17:45.302Z,99873.76
2017-12-08T02:18:47.754Z,99874.09
2017-12-08T02:19:50.223Z,99884.41
2017-12-08T02:20:52.684Z,99882.89
2017-12-08T02:21:55.145Z,99884.73
2017-12-08T02:22:57.594Z,99885.09
2017-12-08T02:24:00.057Z,99890.48
2017-12-08T02:25:02.540Z,99891.26
2017-12-08T02:26:04.995Z,99890.57
2017-12-08T02:27:07.442Z,99891.95
2017-12-08T02:28:10.236Z,99888.50
2017-12-08T02:29:12.686Z,99886.48
2017-12-08T02:30:15.183Z,99890.02
2017-12-08T02:31:17.644Z,99888.70
2017-12-08T02:32:20.112Z,99895.19
2017-12-08T02:33:22.562Z,99891.66
2017-12-08T02:34:25.018Z,99891.11
2017-12-08T02:35:27.505Z,99896.94
2017-12-08T02:36:29.969Z,99889.85
2017-12-08T02:37:32.436Z,99886.14
2017-12-08T02:38:34.901Z,99891.48
2017-12-08T02:39:37.365Z,99884.66
2017-12-08T02:40:39.855Z,99881.58
2017-12-08T02:41:42.323Z,99884.09
2017-12-08T02:42:44.770Z,99890.17
2017-12-08T02:43:47.240Z,99884.28
2017-12-08T02:44:49.688Z,99887.79
2017-12-08T02:45:52.158Z,99887.96
2017-12-08T02:46:54.620Z,99887.10
2017-12-08T02:47:57.083Z,99890.66
2017-12-08T02:48:59.541Z,99893.78
2017-12-08T02:50:02.007Z,99897.02
2017-12-08T02:51:04.474Z,99900.25
2017-12-08T02:52:06.945Z,99896.02
2017-12-08T02:53:09.430Z,99898.30
2017-12-08T02:54:11.896Z,99902.74
2017-12-08T02:55:14.439Z,99896.83
2017-12-08T02:56:16.909Z,99892.06
2017-12-08T02:57:19.372Z,99896.16
2017-12-08T02:58:21.826Z,99893.98
2017-12-08T02:59:24.287Z,99898.42
2017-12-08T03:00:28.656Z,99900.52
2017-12-08T03:01:31.122Z,99897.02
2017-12-08T03:02:33.574Z,99904.13
2017-12-08T03:03:36.044Z,99899.76
2017-12-08T03:04:38.509Z,99900.81
2017-12-08T03:05:40.980Z,99896.97
2017-12-08T03:06:43.559Z,99896.39
2017-12-08T03:07:46.164Z,99893.41
2017-12-08T03:08:48.616Z,99892.05
2017-12-08T03:09:51.066Z,99893.25
2017-12-08T03:10:53.532Z,99890.98
2017-12-08T03:11:56.021Z,99886.34
2017-12-08T03:12:58.485Z,99886.27
2017-12-08T03:14:00.939Z,99880.34
2017-12-08T03:15:03.417Z,99881.20
2017-12-08T03:16:05.886Z,99877.27
2017-12-08T03:17:08.379Z,99880.10
2017-12-08T03:18:10.840Z,99883.02
2017-12-08T03:19:13.301Z,99886.50
2017-12-08T03:20:15.750Z,99884.89
2017-12-08T03:21:18.200Z,99880.69
2017-12-08T03:22:20.700Z,99881.20
2017-12-08T03:23:23.165Z,99885.08
2017-12-08T03:24:25.615Z,99877.50
2017-12-08T03:25:28.077Z,99881.70
2017-12-08T03:26:31.343Z,99882.06
2017-12-08T03:27:33.839Z,99879.59
2017-12-08T03:28:36.353Z,99884.34
2017-12-08T03:29:38.833Z,99884.50
2017-12-08T03:30:41.289Z,99878.36
2017-12-08T03:31:43.756Z,99880.95
2017-12-08T03:32:46.245Z,99881.63
2017-12-08T03:33:48.703Z,99883.95
2017-12-08T03:34:51.166Z,99881.23
2017-12-08T03:35:53.632Z,99887.78
2017-12-08T03:36:56.105Z,99880.42
2017-12-08T03:37:58.592Z,99873.56
2017-12-08T03:39:01.056Z,99876.64
2017-12-08T03:40:03.502Z,99876.05
2017-12-08T03:41:05.968Z,99873.03
2017-12-08T03:42:08.431Z,99873.03
2017-12-08T03:43:10.917Z,99874.47
2017-12-08T03:44:13.389Z,99868.73
2017-12-08T03:45:15.856Z,99875.83
2017-12-08T03:46:18.325Z,99873.05
2017-12-08T03:47:20.774Z,99877.01
2017-12-08T03:48:23.293Z,99872.62
2017-12-08T03:49:25.753Z,99873.94
2017-12-08T03:50:28.201Z,99876.15
2017-12-08T03:51:30.658Z,99870.36
2017-12-08T03:52:33.102Z,99870.94
2017-12-08T03:53:35.574Z,99882.55
2017-12-08T03:54:38.041Z,99881.72
2017-12-08T03:55:40.491Z,99870.92
2017-12-08T03:56:42.956Z,99881.59
2017-12-08T03:57:45.402Z,99886.25
2017-12-08T03:58:47.874Z,99884.21
2017-12-08T03:59:50.322Z,99883.23
2017-12-08T04:00:52.786Z,99884.73
2017-12-08T04:01:55.254Z,99887.28
2017-12-08T04:02:57.710Z,99884.23
2017-12-08T04:04:00.201Z,99881.11
2017-12-08T04:05:02.662Z,99886.77
2017-12-08T04:06:05.116Z,99879.34
2017-12-08T04:07:07.617Z,99880.25
2017-12-08T04:08:10.035Z,99882.51
2017-12-08T04:09:12.506Z,99873.13
2017-12-08T04:10:14.975Z,99885.98
2017-12-08T04:11:17.439Z,99889.99
2017-12-08T04:12:19.901Z,99889.62
2017-12-08T04:13:22.354Z,99893.95
2017-12-08T04:14:24.823Z,99885.66
2017-12-08T04:15:27.274Z,99885.38
2017-12-08T04:16:29.718Z,99887.59
2017-12-08T04:17:32.179Z,99885.06
2017-12-08T04:18:34.630Z,99885.11
2017-12-08T04:19:37.082Z,99884.39
2017-12-08T04:20:39.601Z,99886.48
2017-12-08T04:21:42.039Z,99892.02
2017-12-08T04:22:44.527Z,99888.09
2017-12-08T04:23:47.067Z,99887.59
2017-12-08T04:24:49.528Z,99886.75
2017-12-08T04:25:51.978Z,99889.32
2017-12-08T04:26:54.440Z,99892.28
2017-12-08T04:27:56.904Z,99887.66
2017-12-08T04:28:59.359Z,99888.41
2017-12-08T04:30:01.829Z,99887.57
2017-12-08T04:31:04.278Z,99892.84
2017-12-08T04:32:06.731Z,99893.70
2017-12-08T04:33:09.200Z,99892.07
2017-12-08T04:34:11.693Z,99890.52
2017-12-08T04:35:14.160Z,99887.91
2017-12-08T04:36:16.621Z,99887.84
2017-12-08T04:37:19.090Z,99890.77
2017-12-08T04:38:21.564Z,99894.63
2017-12-08T04:39:24.015Z,99889.89
2017-12-08T04:40:26.466Z,99899.23
2017-12-08T04:41:28.918Z,99891.27
2017-12-08T04:42:31.375Z,99894.03
2017-12-08T04:43:33.842Z,99902.50
2017-12-08T04:44:36.308Z,99904.38
2017-12-08T04:45:38.754Z,99898.50
2017-12-08T04:46:41.203Z,99899.43
2017-12-08T04:47:43.673Z,99895.13
2017-12-08T04:48:46.138Z,99899.00
2017-12-08T04:49:48.602Z,99895.66
2017-12-08T04:50:51.068Z,99899.02
2017-12-08T04:51:53.524Z,99900.55
2017-12-08T04:52:55.996Z,99904.59
2017-12-08T04:53:58.460Z,99898.71
2017-12-08T04:55:00.928Z,99905.42
2017-12-08T04:56:03.392Z,99908.07
2017-12-08T04:57:05.884Z,99913.64
2017-12-08T04:58:08.365Z,99908.45
2017-12-08T04:59:10.816Z,99913.37
2017-12-08T05:00:13.283Z,99917.06
2017-12-08T05:01:15.734Z,99912.36
2017-12-08T05:02:18.196Z,99906.66
2017-12-08T05:03:20.655Z,99911.19
2017-12-08T05:04:23.106Z,99903.63
2017-12-08T05:05:25.571Z,99907.47
2017-12-08T05:06:28.028Z,99909.59
2017-12-08T05:07:30.502Z,99901.07
2017-12-08T05:08:32.960Z,99911.06
2017-12-08T05:09:35.424Z,99914.05
2017-12-08T05:10:37.898Z,99911.34
2017-12-08T05:11:40.373Z,99916.72
2017-12-08T05:12:42.820Z,99912.09
2017-12-08T05:13:45.270Z,99908.91
2017-12-08T05:14:47.727Z,99911.11
2017-12-08T05:15:50.199Z,99916.33
2017-12-08T05:16:52.645Z,99913.03
2017-12-08T05:17:55.102Z,99912.17
2017-12-08T05:18:57.554Z,99910.05
2017-12-08T05:20:00.021Z,99912.23
2017-12-08T05:21:02.508Z,99905.41
2017-12-08T05:22:04.963Z,99914.09
2017-12-08T05:23:07.414Z,99906.72
2017-12-08T05:24:09.866Z,99914.81
2017-12-08T05:25:12.326Z,99914.84
2017-12-08T05:26:14.818Z,99912.23
2017-12-08T05:27:17.269Z,99916.02
2017-12-08T05:28:19.736Z,99912.68
2017-12-08T05:29:22.188Z,99913.11
2017-12-08T05:30:24.637Z,99918.66
2017-12-08T05:31:27.128Z,99922.10
2017-12-08T05:32:29.600Z,99914.81
2017-12-08T05:33:32.066Z,99920.59
2017-12-08T05:34:34.519Z,99919.47
2017-12-08T05:35:36.985Z,99921.12
2017-12-08T05:36:39.455Z,99922.13
2017-12-08T05:37:41.917Z,99921.89
2017-12-08T05:38:44.362Z,99922.53
2017-12-08T05:39:46.886Z,99923.83
2017-12-08T05:40:49.349Z,99919.95
2017-12-08T05:41:51.832Z,99923.33
2017-12-08T05:42:54.277Z,99916.41
2017-12-08T05:43:56.739Z,99916.20
2017-12-08T05:44:59.203Z,99916.08
2017-12-08T05:46:01.651Z,99915.02
2017-12-08T05:47:04.130Z,99919.45
2017-12-08T05:48:06.600Z,99912.20
2017-12-08T05:49:09.084Z,99911.08
2017-12-08T05:50:11.548Z,99905.66
2017-12-08T05:51:14.009Z,99904.16
2017-12-08T05:52:16.527Z,99907.04
2017-12-08T05:53:19.008Z,99907.84
2017-12-08T05:54:21.449Z,99914.50
2017-12-08T05:55:23.918Z,99912.31
2017-12-08T05:56:26.397Z,99910.16
2017-12-08T05:57:28.880Z,99912.94
2017-12-08T05:58:31.334Z,99905.92
2017-12-08T05:59:33.805Z,99913.38
2017-12-08T06:00:36.270Z,99913.80
2017-12-08T06:01:38.799Z,99916.81
2017-12-08T06:02:41.278Z,99912.08
2017-12-08T06:03:43.741Z,99909.30
2017-12-08T06:04:46.204Z,99917.78
2017-12-08T06:05:48.668Z,99917.45
2017-12-08T06:06:51.130Z,99919.20
2017-12-08T06:07:53.614Z,99914.93
2017-12-08T06:08:56.076Z,99917.94
2017-12-08T06:09:58.537Z,99924.63
2017-12-08T06:11:01.007Z,99914.33
2017-12-08T06:12:03.458Z,99910.52
2017-12-08T06:13:05.939Z,99910.45
2017-12-08T06:14:08.409Z,99907.28
2017-12-08T06:15:10.871Z,99909.40
2017-12-08T06:16:13.322Z,99904.39
2017-12-08T06:17:15.775Z,99907.14
2017-12-08T06:18:18.272Z,99904.77
2017-12-08T06:19:20.729Z,99906.88
2017-12-08T06:20:23.188Z,99909.80
2017-12-08T06:21:25.668Z,99902.28
2017-12-08T06:22:28.114Z,99904.13
2017-12-08T06:23:30.598Z,99906.68
2017-12-08T06:24:33.062Z,99901.28
2017-12-08T06:25:35.529Z,99899.92
2017-12-08T06:26:37.978Z,99902.67
2017-12-08T06:27:40.441Z,99898.91
2017-12-08T06:28:42.935Z,99904.70
2017-12-08T06:29:45.470Z,99901.25
2017-12-08T06:30:47.920Z,99901.55
2017-12-08T06:31:50.370Z,99907.34
2017-12-08T06:32:52.828Z,99903.87
2017-12-08T06:33:55.317Z,99902.51
2017-12-08T06:34:57.786Z,99902.08
2017-12-08T06:36:00.239Z,99899.99
2017-12-08T06:37:02.709Z,99902.37
2017-12-08T06:38:05.161Z,99902.48
2017-12-08T06:39:07.635Z,99909.59
2017-12-08T06:40:10.154Z,99901.78
2017-12-08T06:41:12.623Z,99907.08
2017-12-08T06:42:15.076Z,99901.95
2017-12-08T06:43:22.093Z,99908.27
2017-12-08T06:44:24.580Z,99907.84
2017-12-08T06:45:27.048Z,99902.58
2017-12-08T06:46:29.516Z,99901.98
2017-12-08T06:47:31.970Z,99911.69
2017-12-08T06:48:34.500Z,99912.15
2017-12-08T06:49:37.012Z,99907.14
2017-12-08T06:50:39.476Z,99907.91
2017-12-08T06:51:41.940Z,99907.31
2017-12-08T06:52:44.404Z,99910.72
2017-12-08T06:53:46.913Z,99904.50
2017-12-08T06:54:49.496Z,99899.20
2017-12-08T06:55:51.958Z,99899.12
2017-12-08T06:56:54.434Z,99906.12
2017-12-08T06:57:56.904Z,99899.12
2017-12-08T06:58:59.396Z,99909.43
2017-12-08T07:00:01.880Z,99912.94
2017-12-08T07:01:04.327Z,99906.16
2017-12-08T07:02:06.827Z,99907.38
2017-12-08T07:03:09.265Z,99905.92
2017-12-08T07:04:11.707Z,99906.12
2017-12-08T07:05:14.175Z,99910.98
2017-12-08T07:06:16.636Z,99911.58
2017-12-08T07:07:19.082Z,99909.89
2017-12-08T07:08:21.548Z,99907.52
2017-12-08T07:09:24.084Z,99908.97
2017-12-08T07:10:26.578Z,99912.31
2017-12-08T07:11:29.036Z,99915.22
2017-12-08T07:12:31.483Z,99914.56
2017-12-08T07:13:33.930Z,99910.00
2017-12-08T07:14:36.392Z,99917.45
2017-12-08T07:15:38.867Z,99913.17
2017-12-08T07:16:41.329Z,99906.12
2017-12-08T07:17:43.801Z,99910.03
2017-12-08T07:18:46.262Z,99914.80
2017-12-08T07:19:48.732Z,99918.20
2017-12-08T07:20:51.224Z,99925.30
2017-12-08T07:21:53.684Z,99921.66
2017-12-08T07:22:56.143Z,99922.58
2017-12-08T07:23:58.593Z,99920.59
2017-12-08T07:25:01.034Z,99925.27
2017-12-08T07:26:03.536Z,99933.37
2017-12-08T07:27:05.983Z,99924.23
2017-12-08T07:28:08.434Z,99928.05
2017-12-08T07:29:10.897Z,99925.20
2017-12-08T07:30:13.351Z,99926.52
2017-12-08T07:31:15.856Z,99930.19
2017-12-08T07:32:18.311Z,99935.77
2017-12-08T07:33:20.754Z,99923.33
2017-12-08T07:34:23.212Z,99936.19
2017-12-08T07:35:25.681Z,99933.50
2017-12-08T07:36:28.161Z,99933.66
2017-12-08T07:37:30.615Z,99934.72
2017-12-08T07:38:33.076Z,99937.59
2017-12-08T07:39:35.541Z,99933.05
2017-12-08T07:40:38.010Z,99934.34
2017-12-08T07:41:40.479Z,99934.50
2017-12-08T07:42:42.950Z,99938.02
2017-12-08T07:43:45.415Z,99930.28
2017-12-08T07:44:47.884Z,99935.44
2017-12-08T07:45:50.330Z,99935.59
2017-12-08T07:46:52.792Z,99938.27
2017-12-08T07:47:55.246Z,99935.84
2017-12-08T07:48:57.742Z,99941.98
2017-12-08T07:50:00.202Z,99934.83
2017-12-08T07:51:02.665Z,99932.34
2017-12-08T07:52:05.114Z,99928.64
2017-12-08T07:53:07.590Z,99927.19
2017-12-08T07:54:10.060Z,99928.64
2017-12-08T07:55:12.544Z,99917.59
2017-12-08T07:56:15.000Z,99925.69
2017-12-08T07:57:17.450Z,99921.12
2017-12-08T07:58:19.898Z,99918.21
2017-12-08T07:59:22.346Z,99920.48
2017-12-08T08:00:24.809Z,99916.23
2017-12-08T08:01:28.039Z,99916.27
2017-12-08T08:02:30.501Z,99916.77
2017-12-08T08:03:32.958Z,99917.05
2017-12-08T08:04:35.424Z,99923.50
2017-12-08T08:05:37.875Z,99921.25
2017-12-08T08:06:40.383Z,99931.63
2017-12-08T08:07:42.852Z,99922.99
2017-12-08T08:08:45.316Z,99927.70
2017-12-08T08:09:47.806Z,99940.73
2017-12-08T08:10:50.269Z,99936.52
2017-12-08T08:11:52.772Z,99936.94
2017-12-08T08:12:55.236Z,99954.09
2017-12-08T08:13:57.682Z,99956.40
2017-12-08T08:15:00.126Z,99962.63
2017-12-08T08:16:02.619Z,99961.88
2017-12-08T08:17:05.083Z,99970.86
2017-12-08T08:18:07.539Z,99964.50
2017-12-08T08:19:10.010Z,99969.49
2017-12-08T08:20:12.523Z,99965.50
2017-12-08T08:21:21.279Z,99962.23
2017-12-08T08:22:23.836Z,99967.86
2017-12-08T08:23:26.292Z,99960.62
2017-12-08T08:24:28.769Z,99958.38
2017-12-08T08:25:31.288Z,99954.13
2017-12-08T08:26:33.974Z,99959.88
2017-12-08T08:27:36.437Z,99947.92
2017-12-08T08:28:38.905Z,99944.80
2017-12-08T08:29:41.368Z,99944.64
2017-12-08T08:30:43.814Z,99952.17
2017-12-08T08:31:46.266Z,99952.73
2017-12-08T08:32:48.725Z,99955.83
2017-12-08T08:33:51.192Z,99950.20
2017-12-08T08:34:53.652Z,99958.62
2017-12-08T08:35:56.098Z,99955.83
2017-12-08T08:36:58.559Z,99961.35
2017-12-08T08:38:01.018Z,99958.46
2017-12-08T08:39:03.484Z,99959.51
2017-12-08T08:40:05.944Z,99958.47
2017-12-08T08:41:08.404Z,99961.91
2017-12-08T08:42:10.869Z,99955.45
2017-12-08T08:43:13.355Z,99960.09
2017-12-08T08:44:15.865Z,99959.55
2017-12-08T08:45:18.382Z,99963.75
2017-12-08T08:46:24.780Z,99964.99
2017-12-08T08:47:27.256Z,99958.61
2017-12-08T08:48:29.698Z,99963.52
2017-12-08T08:49:32.156Z,99959.58
2017-12-08T08:50:34.625Z,99959.83
2017-12-08T08:51:37.085Z,99959.34
2017-12-08T08:52:39.530Z,99956.06
2017-12-08T08:53:41.998Z,99961.14
2017-12-08T08:54:44.458Z,99954.84
2017-12-08T08:55:46.903Z,99961.47
2017-12-08T08:56:49.365Z,99958.21
2017-12-08T08:57:51.831Z,99953.15
2017-12-08T08:58:54.306Z,99950.42
2017-12-08T08:59:57.191Z,99953.58
2017-12-08T09:00:59.855Z,99954.84
2017-12-08T09:02:02.331Z,99958.03
2017-12-08T09:03:04.778Z,99964.02
2017-12-08T09:04:07.240Z,99957.73
2017-12-08T09:05:09.690Z,99957.88
2017-12-08T09:06:12.157Z,99966.27
2017-12-08T09:09:34.876Z,99953.60
2017-12-08T09:10:37.347Z,99953.00
2017-12-08T09:11:39.827Z,99949.04
2017-12-08T09:12:42.313Z,99950.60
2017-12-08T09:13:44.858Z,99944.24
2017-12-08T09:14:47.344Z,99944.67
2017-12-08T09:15:49.812Z,99945.66
2017-12-08T09:16:52.270Z,99941.86
2017-12-08T09:17:54.766Z,99934.27
2017-12-08T09:18:57.218Z,99931.66
2017-12-08T09:19:59.705Z,99934.20
2017-12-08T09:21:02.169Z,99939.41
2017-12-08T09:22:04.652Z,99940.20
2017-12-08T09:23:07.163Z,99943.31
2017-12-08T09:24:09.706Z,99936.45
2017-12-08T09:25:12.202Z,99949.28
2017-12-08T09:26:14.780Z,99948.91
2017-12-08T09:27:17.245Z,99957.69
2017-12-08T09:28:19.890Z,99947.28
2017-12-08T09:29:22.334Z,99949.91
2017-12-08T09:30:24.846Z,99945.20
2017-12-08T09:31:27.330Z,99948.42
2017-12-08T09:32:29.866Z,99950.83
2017-12-08T09:33:32.756Z,99945.27
2017-12-08T09:34:35.394Z,99947.69
2017-12-08T09:35:37.878Z,99949.48
2017-12-08T09:36:40.331Z,99953.02
2017-12-08T09:37:42.801Z,99949.21
2017-12-08T09:38:45.264Z,99961.89
2017-12-08T09:39:47.732Z,99948.20
2017-12-08T09:40:50.221Z,99941.61
2017-12-08T09:41:52.666Z,99947.70
2017-12-08T09:42:55.131Z,99945.52
2017-12-08T09:43:57.615Z,99942.25
2017-12-08T09:45:00.078Z,99943.53
2017-12-08T09:46:02.596Z,99940.66
2017-12-08T09:47:05.043Z,99949.28
2017-12-08T09:48:07.486Z,99943.74
2017-12-08T09:49:09.961Z,99941.97
2017-12-08T09:50:12.421Z,99940.47
2017-12-08T09:51:14.886Z,99937.33
2017-12-08T09:52:17.520Z,99941.29
2017-12-08T09:53:19.975Z,99924.52
2017-12-08T09:54:22.439Z,99936.89
2017-12-08T09:55:24.895Z,99934.16
2017-12-08T09:56:27.358Z,99938.33
2017-12-08T09:57:29.812Z,99932.19
2017-12-08T09:58:32.328Z,99935.97
2017-12-08T09:59:34.946Z,99931.32
2017-12-08T10:00:37.424Z,99940.53
2017-12-08T10:01:39.911Z,99931.62
2017-12-08T10:02:42.378Z,99936.44
2017-12-08T10:03:44.880Z,99938.18
2017-12-08T10:04:47.331Z,99937.47
2017-12-08T10:05:49.804Z,99942.56
2017-12-08T10:06:52.404Z,99937.61
2017-12-08T10:07:54.855Z,99936.66
2017-12-08T10:08:57.320Z,99938.38
2017-12-08T10:09:59.784Z,99948.53
2017-12-08T10:11:02.238Z,99937.63
2017-12-08T10:12:04.726Z,99940.20
2017-12-08T10:13:07.208Z,99934.46
2017-12-08T10:14:09.660Z,99943.28
2017-12-08T10:15:12.179Z,99943.28
2017-12-08T10:16:14.630Z,99930.94
2017-12-08T10:17:17.098Z,99938.98
2017-12-08T10:18:19.649Z,99944.56
2017-12-08T10:19:22.107Z,99936.17
2017-12-08T10:20:24.638Z,99942.30
2017-12-08T10:21:27.117Z,99936.19
2017-12-08T10:22:29.579Z,99932.01
2017-12-08T10:23:32.052Z,99935.36
2017-12-08T10:24:34.595Z,99936.19
2017-12-08T10:25:37.050Z,99925.30
2017-12-08T10:26:39.531Z,99925.53
2017-12-08T10:27:42.031Z,99931.95
2017-12-08T10:28:44.531Z,99935.40
2017-12-08T10:29:46.994Z,99947.61
2017-12-08T10:30:49.489Z,99936.84
2017-12-08T10:31:52.128Z,99955.20
2017-12-08T10:32:54.600Z,99938.55
2017-12-08T10:33:57.064Z,99942.19
2017-12-08T10:34:59.531Z,99933.81
2017-12-08T10:36:02.040Z,99946.13
2017-12-08T10:37:04.517Z,99941.16
2017-12-08T10:38:07.000Z,99939.73
2017-12-08T10:39:09.504Z,99936.79
2017-12-08T10:40:11.987Z,99927.84
2017-12-08T10:41:14.445Z,99935.36
2017-12-08T10:42:16.898Z,99926.52
2017-12-08T10:43:19.370Z,99929.04
2017-12-08T10:44:21.818Z,99921.82
2017-12-08T10:45:24.285Z,99927.22
2017-12-08T10:46:27.681Z,99924.77
2017-12-08T10:47:30.229Z,99915.42
2017-12-08T10:48:33.314Z,99912.80
2017-12-08T10:49:35.851Z,99913.27
2017-12-08T10:50:38.733Z,99912.28
2017-12-08T10:51:41.339Z,99912.88
2017-12-08T10:52:43.796Z,99913.14
2017-12-08T10:53:46.289Z,99906.47
2017-12-08T10:54:48.738Z,99910.69
2017-12-08T10:55:51.205Z,99913.14
2017-12-08T10:56:53.673Z,99906.91
2017-12-08T10:57:56.150Z,99903.83
2017-12-08T10:58:58.622Z,99910.48
2017-12-08T11:00:01.099Z,99905.27
2017-12-08T11:01:03.565Z,99907.88
2017-12-08T11:02:06.023Z,99901.98
2017-12-08T11:03:08.482Z,99908.63
2017-12-08T11:04:10.998Z,99901.70
2017-12-08T11:05:13.460Z,99911.83
2017-12-08T11:06:15.929Z,99904.41
2017-12-08T11:07:18.389Z,99902.50
2017-12-08T11:08:21.001Z,99903.23
2017-12-08T11:09:23.566Z,99903.86
2017-12-08T11:10:26.019Z,99898.41
2017-12-08T11:11:28.489Z,99901.13
2017-12-08T11:12:30.961Z,99903.56
2017-12-08T11:13:33.415Z,99897.77
2017-12-08T11:14:35.896Z,99894.59
2017-12-08T11:15:38.342Z,99897.75
2017-12-08T11:16:40.810Z,99903.72
2017-12-08T11:17:43.269Z,99897.52
2017-12-08T11:18:45.710Z,99898.01
2017-12-08T11:19:48.189Z,99900.75
2017-12-08T11:20:50.635Z,99905.02
2017-12-08T11:21:53.086Z,99904.22
2017-12-08T11:22:55.598Z,99896.27
2017-12-08T11:23:58.057Z,99897.80
2017-12-08T11:25:00.534Z,99894.58
2017-12-08T11:26:02.997Z,99894.99
2017-12-08T11:27:05.478Z,99898.17
2017-12-08T11:28:08.318Z,99901.50
2017-12-08T11:29:10.942Z,99893.13
2017-12-08T11:30:13.406Z,99901.59
2017-12-08T11:31:16.031Z,99904.48
2017-12-08T11:32:18.517Z,99897.67
2017-12-08T11:33:21.238Z,99901.38
2017-12-08T11:34:23.726Z,99897.24
2017-12-08T11:35:26.236Z,99896.71
2017-12-08T11:36:29.868Z,99902.01
2017-12-08T11:37:32.332Z,99898.27
2017-12-08T11:38:35.380Z,99897.31
2017-12-08T11:39:37.893Z,99897.44
2017-12-08T11:40:40.363Z,99894.98
2017-12-08T11:41:42.810Z,99890.45
2017-12-08T11:42:45.268Z,99902.27
2017-12-08T11:43:47.934Z,99901.12
2017-12-08T11:44:50.491Z,99895.75
2017-12-08T11:45:52.989Z,99894.20
2017-12-08T11:46:55.737Z,99897.64
2017-12-08T11:47:58.203Z,99894.36
2017-12-08T11:49:00.668Z,99895.09
2017-12-08T11:50:03.129Z,99896.15
2017-12-08T11:51:05.599Z,99891.74
2017-12-08T11:52:08.060Z,99893.50
2017-12-08T11:53:10.789Z,99898.06
2017-12-08T11:54:13.329Z,99894.52
2017-12-08T11:55:15.792Z,99888.63
2017-12-08T11:56:18.273Z,99888.69
2017-12-08T11:57:20.720Z,99891.11
2017-12-08T11:58:23.183Z,99887.87
2017-12-08T11:59:25.634Z,99882.77
2017-12-08T12:00:28.082Z,99887.67
2017-12-08T12:01:30.641Z,99886.08
2017-12-08T12:02:33.090Z,99882.70
2017-12-08T12:03:35.556Z,99881.64
2017-12-08T12:04:38.016Z,99877.73
2017-12-08T12:05:40.485Z,99882.64
2017-12-08T12:06:42.967Z,99889.36
2017-12-08T12:07:45.424Z,99888.56
2017-12-08T12:08:47.885Z,99882.21
2017-12-08T12:09:50.369Z,99888.27
2017-12-08T12:10:52.817Z,99887.34
2017-12-08T12:11:55.290Z,99877.87
2017-12-08T12:12:58.493Z,99872.33
2017-12-08T12:14:01.100Z,99886.60
2017-12-08T12:15:03.568Z,99880.84
2017-12-08T12:16:07.402Z,99890.64